Time;durP1;ratioP1;P1;durP2;ratioP2;P2;SDS_P1;SDS_P2;PMS_P1;PMS_P2;Temp;Humidity;BMP_temperature;BMP_pressure;BME280_temperature;BME280_humidity;BME280_pressure;Samples;Min_cycle;Max_cycle;Signal;HPM_P1;HPM_P2
2021/06/28 00:00:21;;;;;;;5.45;4.03;;;;;;;18.51;100.00;95701.63;1022388;28;20580;-71
2021/06/28 00:00:52;;;;;;;4.53;4.13;;;;;;;18.49;100.00;95703.81;1023103;28;20023;-72
2021/06/28 00:01:22;;;;;;;6.25;4.30;;;;;;;18.46;100.00;95703.66;1030707;28;20066;-71
2021/06/28 00:01:53;;;;;;;4.72;4.32;;;;;;;18.42;100.00;95703.50;1022752;28;20023;-72
2021/06/28 00:02:23;;;;;;;4.55;4.15;;;;;;;18.46;100.00;95708.97;1026721;28;20019;-71
2021/06/28 00:02:54;;;;;;;5.25;4.03;;;;;;;18.39;100.00;95698.81;1020149;29;20067;-69
2021/06/28 00:03:24;;;;;;;5.35;4.30;;;;;;;18.43;100.00;95712.25;1018581;29;20067;-71
2021/06/28 00:03:55;;;;;;;4.72;4.32;;;;;;;18.42;100.00;95713.38;1018144;29;20027;-71
2021/06/28 00:04:25;;;;;;;10.10;4.65;;;;;;;18.35;100.00;95703.19;1022924;29;20145;-71
2021/06/28 00:04:56;;;;;;;4.53;4.00;;;;;;;18.40;100.00;95712.88;1026488;28;20638;-72
2021/06/28 00:05:27;;;;;;;5.25;4.15;;;;;;;18.33;100.00;95706.16;1019318;29;20036;-72
2021/06/28 00:05:57;;;;;;;7.38;4.22;;;;;;;18.35;100.00;95708.50;1018943;29;20051;-71
2021/06/28 00:06:27;;;;;;;4.75;4.35;;;;;;;18.35;100.00;95713.81;1018743;29;20023;-71
2021/06/28 00:07:01;;;;;;;5.22;4.68;;;;;;;18.33;100.00;95716.78;1022664;28;20034;-68
2021/06/28 00:07:31;;;;;;;7.20;4.60;;;;;;;18.29;100.00;95709.75;1030014;28;20503;-71
2021/06/28 00:08:02;;;;;;;6.25;4.63;;;;;;;18.30;100.00;95706.00;1026681;28;20015;-72
2021/06/28 00:08:32;;;;;;;5.63;4.70;;;;;;;18.28;100.00;95708.97;1022739;29;20018;-71
2021/06/28 00:09:03;;;;;;;5.03;4.63;;;;;;;18.29;100.00;95705.22;1017495;29;20024;-71
2021/06/28 00:09:34;;;;;;;5.82;4.45;;;;;;;18.22;100.00;95704.13;1018700;29;20062;-72
2021/06/28 00:10:05;;;;;;;6.32;4.70;;;;;;;18.25;100.00;95708.81;1018865;29;20536;-72
2021/06/28 00:10:36;;;;;;;7.72;4.82;;;;;;;18.24;100.00;95708.03;1020904;28;20020;-70
2021/06/28 00:11:07;;;;;;;5.65;4.43;;;;;;;18.22;100.00;95709.44;1030676;28;20035;-71
2021/06/28 00:11:37;;;;;;;6.57;4.13;;;;;;;18.16;100.00;95694.75;1029801;28;20081;-71
2021/06/28 00:12:08;;;;;;;4.78;4.38;;;;;;;18.20;100.00;95699.13;1026632;28;20086;-71
2021/06/28 00:12:38;;;;;;;5.97;4.22;;;;;;;18.17;100.00;95696.31;1026931;28;20026;-72
2021/06/28 00:13:09;;;;;;;6.20;4.35;;;;;;;18.20;100.00;95698.34;1026001;28;20121;-71
2021/06/28 00:13:41;;;;;;;4.68;4.28;;;;;;;18.13;100.00;95691.63;1026584;28;20023;-71
2021/06/28 00:14:11;;;;;;;4.68;4.13;;;;;;;18.20;100.00;95704.44;1022722;28;20011;-71
2021/06/28 00:14:41;;;;;;;5.00;4.55;;;;;;;18.19;100.00;95699.44;1018864;29;20082;-72
2021/06/28 00:15:14;;;;;;;4.38;3.97;;;;;;;18.17;100.00;95698.97;1018751;29;20020;-72
2021/06/28 00:15:44;;;;;;;6.25;4.57;;;;;;;18.17;100.00;95696.31;1017577;29;20023;-71
2021/06/28 00:16:15;;;;;;;4.60;4.20;;;;;;;18.18;100.00;95695.22;1015004;29;20021;-72
2021/06/28 00:16:45;;;;;;;5.95;4.53;;;;;;;18.09;100.00;95682.72;1014990;29;20028;-71
2021/06/28 00:17:16;;;;;;;5.25;4.78;;;;;;;18.15;100.00;95696.63;1021809;28;20027;-71
2021/06/28 00:17:46;;;;;;;4.97;4.45;;;;;;;18.14;100.00;95689.72;1022619;28;20043;-72
2021/06/28 00:18:17;;;;;;;5.47;4.95;;;;;;;18.14;100.00;95690.53;1026880;28;20500;-71
2021/06/28 00:18:48;;;;;;;5.25;4.43;;;;;;;18.19;100.00;95686.94;1022681;29;20044;-71
2021/06/28 00:19:18;;;;;;;4.63;4.22;;;;;;;18.20;100.00;95693.81;1026290;28;20797;-71
2021/06/28 00:19:49;;;;;;;5.22;4.72;;;;;;;18.22;100.00;95696.16;1026627;28;20134;-72
2021/06/28 00:20:20;;;;;;;5.25;4.78;;;;;;;18.17;100.00;95683.03;1029375;28;20029;-72
2021/06/28 00:20:50;;;;;;;4.95;4.40;;;;;;;18.25;100.00;95687.56;1030632;28;20031;-72
2021/06/28 00:21:21;;;;;;;5.05;4.55;;;;;;;18.26;100.00;95689.13;1026992;28;20069;-71
2021/06/28 00:21:51;;;;;;;6.47;4.82;;;;;;;18.29;100.00;95688.50;1026795;28;20031;-71
2021/06/28 00:22:22;;;;;;;4.75;4.35;;;;;;;18.30;100.00;95687.41;1023139;28;20031;-71
2021/06/28 00:22:55;;;;;;;4.93;4.43;;;;;;;18.33;100.00;95689.44;1023685;28;20039;-68
2021/06/28 00:23:28;;;;;;;5.40;4.90;;;;;;;18.36;100.00;95688.81;1029723;28;20439;-70
2021/06/28 00:23:59;;;;;;;5.25;4.50;;;;;;;18.34;100.00;95683.81;1031377;28;20030;-72
2021/06/28 00:24:32;;;;;;;4.93;4.53;;;;;;;18.41;100.00;95685.22;1034496;28;20037;-71
2021/06/28 00:25:08;;;;;;;5.40;4.90;;;;;;;18.39;100.00;95677.56;1022622;29;20417;-72
2021/06/28 00:25:39;;;;;;;6.15;4.88;;;;;;;18.46;100.00;95693.03;1026643;28;20037;-72
2021/06/28 00:26:09;;;;;;;6.60;4.88;;;;;;;18.44;100.00;95688.03;1022157;29;20125;-71
2021/06/28 00:26:40;;;;;;;5.13;4.63;;;;;;;18.39;100.00;95680.22;1022571;29;20453;-71
2021/06/28 00:27:10;;;;;;;5.47;4.72;;;;;;;18.45;100.00;95697.56;1030575;28;20026;-72
2021/06/28 00:27:41;;;;;;;5.22;4.72;;;;;;;18.48;100.00;95701.47;1030711;28;20034;-72
2021/06/28 00:28:12;;;;;;;7.55;5.05;;;;;;;18.48;100.00;95702.25;1026177;28;20027;-71
2021/06/28 00:28:42;;;;;;;6.63;5.15;;;;;;;18.45;100.00;95686.94;1030687;28;20077;-71
2021/06/28 00:29:15;;;;;;;5.45;4.95;;;;;;;18.49;100.00;95693.19;1030742;28;20026;-71
2021/06/28 00:29:46;;;;;;;6.90;4.85;;;;;;;18.50;100.00;95694.75;1026520;28;20035;-71
2021/06/28 00:30:18;;;;;;;5.43;4.65;;;;;;;18.51;100.00;95687.53;1027231;28;20037;-71
2021/06/28 00:30:49;;;;;;;5.30;4.80;;;;;;;18.50;100.00;95686.78;1014006;29;20104;-70
2021/06/28 00:31:19;;;;;;;5.35;4.85;;;;;;;18.49;100.00;95682.56;1021331;28;20095;-71
2021/06/28 00:31:53;;;;;;;5.18;4.68;;;;;;;18.49;100.00;95682.56;1023064;28;20030;-71
2021/06/28 00:32:24;;;;;;;5.82;4.72;;;;;;;18.49;100.00;95679.91;1023176;28;20160;-71
2021/06/28 00:32:55;;;;;;;4.82;4.43;;;;;;;18.47;100.00;95673.34;1026315;28;20547;-69
2021/06/28 00:33:26;;;;;;;5.28;4.78;;;;;;;18.41;100.00;95675.38;1030126;28;20034;-71
2021/06/28 00:33:57;;;;;;;5.20;4.70;;;;;;;18.40;100.00;95681.78;1030566;28;20612;-71
2021/06/28 00:34:29;;;;;;;5.18;4.68;;;;;;;18.37;100.00;95679.75;1029836;28;20093;-71
2021/06/28 00:34:59;;;;;;;4.75;4.35;;;;;;;18.34;100.00;95675.06;1031621;28;20044;-71
2021/06/28 00:35:30;;;;;;;5.00;4.60;;;;;;;18.31;100.00;95673.81;1030377;28;20500;-71
2021/06/28 00:36:00;;;;;;;7.10;4.80;;;;;;;18.29;100.00;95676.00;1030470;28;20037;-70
2021/06/28 00:36:31;;;;;;;6.85;4.97;;;;;;;18.25;100.00;95676.94;1028352;28;20035;-71
2021/06/28 00:37:03;;;;;;;5.63;4.68;;;;;;;18.16;100.00;95658.34;1027354;28;20042;-72
2021/06/28 00:37:34;;;;;;;6.22;4.65;;;;;;;18.21;100.00;95678.66;1022799;29;20031;-72
2021/06/28 00:38:05;;;;;;;11.93;5.07;;;;;;;18.12;100.00;95671.47;1027693;28;20026;-71
2021/06/28 00:38:35;;;;;;;5.53;4.60;;;;;;;18.18;100.00;95677.41;1022583;28;20178;-71
2021/06/28 00:39:06;;;;;;;5.07;4.63;;;;;;;18.16;100.00;95676.94;1026261;28;20026;-71
2021/06/28 00:39:36;;;;;;;6.28;4.85;;;;;;;18.16;100.00;95676.16;1026295;28;20026;-71
2021/06/28 00:40:09;;;;;;;5.50;4.93;;;;;;;18.09;100.00;95671.31;1025751;28;20102;-71
2021/06/28 00:40:39;;;;;;;6.03;5.15;;;;;;;18.14;100.00;95671.16;1028732;28;20037;-71
2021/06/28 00:41:10;;;;;;;6.28;4.80;;;;;;;18.14;100.00;95671.94;1026894;28;20022;-72
2021/06/28 00:41:40;;;;;;;5.65;4.85;;;;;;;18.15;100.00;95675.38;1019051;28;20035;-71
2021/06/28 00:42:11;;;;;;;5.95;5.35;;;;;;;18.10;100.00;95665.69;1018670;29;20028;-71
2021/06/28 00:42:41;;;;;;;6.38;4.65;;;;;;;18.14;100.00;95673.81;1022518;29;20105;-71
2021/06/28 00:43:12;;;;;;;5.38;4.88;;;;;;;18.12;100.00;95668.81;1030017;28;20398;-71
2021/06/28 00:43:43;;;;;;;6.13;5.18;;;;;;;18.16;100.00;95670.84;1026196;28;20099;-71
2021/06/28 00:44:13;;;;;;;5.50;4.63;;;;;;;18.13;100.00;95667.72;1027127;28;20019;-71
2021/06/28 00:44:43;;;;;;;6.60;5.00;;;;;;;18.10;100.00;95668.34;1015529;28;20091;-71
2021/06/28 00:45:22;;;;;;;6.32;5.35;;;;;;;18.01;100.00;95653.50;1023301;28;20028;-71
2021/06/28 00:45:53;;;;;;;5.40;4.90;;;;;;;18.09;100.00;95674.75;1026960;28;20026;-72
2021/06/28 00:46:23;;;;;;;5.75;5.22;;;;;;;18.09;100.00;95673.97;1025926;28;20027;-70
2021/06/28 00:46:53;;;;;;;6.10;5.50;;;;;;;18.09;100.00;95668.66;1028198;28;20084;-71
2021/06/28 00:47:24;;;;;;;5.78;5.18;;;;;;;18.08;100.00;95669.75;1027694;28;20073;-71
2021/06/28 00:47:56;;;;;;;5.72;4.70;;;;;;;17.89;100.00;95644.28;1022562;29;20027;-71
2021/06/28 00:48:27;;;;;;;7.28;4.75;;;;;;;18.10;100.00;95671.00;1023114;29;20057;-72
2021/06/28 00:48:58;;;;;;;5.72;5.20;;;;;;;18.08;100.00;95673.19;1023266;28;20469;-71
2021/06/28 00:49:29;;;;;;;5.45;4.95;;;;;;;18.08;100.00;95675.84;1027604;28;20026;-71
2021/06/28 00:49:59;;;;;;;7.63;5.53;;;;;;;18.07;100.00;95668.97;1031081;28;20069;-71
2021/06/28 00:50:31;;;;;;;5.30;4.80;;;;;;;18.01;100.00;95667.56;1026648;28;20069;-71
2021/06/28 00:51:01;;;;;;;5.63;5.13;;;;;;;18.03;100.00;95669.91;1018963;29;20818;-71
2021/06/28 00:51:32;;;;;;;5.82;5.28;;;;;;;17.95;100.00;95668.81;1014777;29;20028;-70
2021/06/28 00:52:06;;;;;;;5.90;5.35;;;;;;;17.93;100.00;95668.31;1026984;28;20027;-71
2021/06/28 00:52:37;;;;;;;5.80;5.30;;;;;;;17.90;100.00;95671.59;1031058;28;20448;-70
2021/06/28 00:53:09;;;;;;;5.75;5.10;;;;;;;17.93;100.00;95673.63;1025486;28;20119;-71
2021/06/28 00:53:40;;;;;;;5.38;4.88;;;;;;;17.88;100.00;95668.50;1022959;28;20027;-70
2021/06/28 00:54:11;;;;;;;5.47;4.95;;;;;;;17.86;100.00;95674.09;1026549;28;20054;-71
2021/06/28 00:54:44;;;;;;;7.10;4.82;;;;;;;17.78;100.00;95672.22;1022811;28;20043;-71
2021/06/28 00:55:15;;;;;;;5.97;5.07;;;;;;;17.79;100.00;95675.66;1023041;29;20110;-71
2021/06/28 00:55:46;;;;;;;7.25;5.03;;;;;;;17.75;100.00;95669.38;1020083;28;20027;-70
2021/06/28 00:56:16;;;;;;;5.78;5.28;;;;;;;17.75;100.00;95669.38;1018525;29;20027;-70
2021/06/28 00:56:49;;;;;;;5.63;5.13;;;;;;;17.73;100.00;95676.84;1015542;29;20487;-71
2021/06/28 00:57:20;;;;;;;5.43;4.85;;;;;;;17.70;100.00;95680.13;1018985;29;20102;-71
2021/06/28 00:57:50;;;;;;;5.78;5.18;;;;;;;17.62;100.00;95671.84;1019256;29;20027;-71
2021/06/28 00:58:21;;;;;;;5.90;5.30;;;;;;;17.65;100.00;95681.06;1022795;28;20038;-71
2021/06/28 00:58:51;;;;;;;7.47;5.75;;;;;;;17.61;100.00;95672.94;1022972;29;20046;-71
2021/06/28 00:59:22;;;;;;;5.88;5.22;;;;;;;17.60;100.00;95670.56;1023051;29;20035;-71
2021/06/28 00:59:55;;;;;;;5.90;5.38;;;;;;;17.59;100.00;95671.69;1026489;28;20038;-71
2021/06/28 01:00:26;;;;;;;6.07;5.47;;;;;;;17.59;100.00;95669.81;1026714;28;20089;-72
2021/06/28 01:00:57;;;;;;;5.57;5.07;;;;;;;17.51;100.00;95659.97;1031646;28;20455;-71
2021/06/28 01:01:27;;;;;;;7.32;4.93;;;;;;;17.59;100.00;95666.38;1026005;28;20042;-71
2021/06/28 01:01:59;;;;;;;5.45;4.95;;;;;;;17.59;100.00;95661.84;1019824;29;20027;-71
2021/06/28 01:02:29;;;;;;;5.65;4.97;;;;;;;17.59;100.00;95666.38;1022122;29;20406;-71
2021/06/28 01:03:00;;;;;;;6.28;5.18;;;;;;;17.58;100.00;95665.59;1022670;28;20028;-69
2021/06/28 01:03:30;;;;;;;6.57;5.13;;;;;;;17.56;100.00;95670.41;1023742;28;20500;-72
2021/06/28 01:04:01;;;;;;;5.55;5.00;;;;;;;17.56;100.00;95666.97;1024252;28;20086;-71
2021/06/28 01:04:31;;;;;;;6.95;5.68;;;;;;;17.55;100.00;95671.50;1031861;28;20026;-71
2021/06/28 01:05:07;;;;;;;5.78;5.28;;;;;;;17.54;100.00;95669.97;1028734;28;20023;-71
2021/06/28 01:05:39;;;;;;;5.55;5.03;;;;;;;17.55;100.00;95676.81;1028381;28;20026;-71
2021/06/28 01:06:11;;;;;;;5.65;5.05;;;;;;;17.51;100.00;95665.25;1032857;28;20081;-71
2021/06/28 01:06:42;;;;;;;6.25;5.13;;;;;;;17.54;100.00;95675.25;1033769;28;20030;-71
2021/06/28 01:07:12;;;;;;;6.38;5.30;;;;;;;17.52;100.00;95672.13;1031881;28;20022;-71
2021/06/28 01:07:43;;;;;;;7.65;5.25;;;;;;;17.52;100.00;95674.00;1027588;28;20031;-71
2021/06/28 01:08:14;;;;;;;5.90;5.40;;;;;;;17.52;100.00;95677.44;1027818;28;20023;-71
2021/06/28 01:08:44;;;;;;;5.18;4.68;;;;;;;17.51;100.00;95673.22;1032059;28;20558;-72
2021/06/28 01:09:15;;;;;;;5.38;4.88;;;;;;;17.50;100.00;95674.28;1035903;28;20515;-71
2021/06/28 01:09:45;;;;;;;5.05;4.65;;;;;;;17.52;100.00;95674.00;1031752;28;20026;-71
2021/06/28 01:10:16;;;;;;;9.07;5.32;;;;;;;17.51;100.00;95670.56;1031412;28;20053;-71
2021/06/28 01:10:46;;;;;;;5.93;5.05;;;;;;;17.51;100.00;95675.88;1019877;29;20024;-70
2021/06/28 01:11:17;;;;;;;8.50;5.10;;;;;;;17.51;100.00;95675.88;1019734;29;20066;-71
2021/06/28 01:11:48;;;;;;;11.43;5.22;;;;;;;17.44;100.00;95663.06;1023402;29;20021;-71
2021/06/28 01:12:19;;;;;;;7.15;4.90;;;;;;;17.51;100.00;95672.44;1027780;28;20408;-71
2021/06/28 01:12:50;;;;;;;6.10;5.50;;;;;;;17.49;100.00;95678.03;1027957;28;20019;-72
2021/06/28 01:13:20;;;;;;;5.20;4.68;;;;;;;17.50;100.00;95679.59;1031949;28;20515;-72
2021/06/28 01:13:51;;;;;;;5.90;5.32;;;;;;;17.42;100.00;95667.09;1027583;28;20015;-71
2021/06/28 01:14:21;;;;;;;5.80;5.30;;;;;;;17.50;100.00;95679.59;1024050;29;20023;-71
2021/06/28 01:14:52;;;;;;;5.65;5.07;;;;;;;17.49;100.00;95685.22;1015530;29;20052;-70
2021/06/28 01:15:25;;;;;;;7.43;5.50;;;;;;;17.44;100.00;95675.53;1019539;29;20015;-72
2021/06/28 01:15:55;;;;;;;5.70;5.15;;;;;;;17.47;100.00;95680.25;1019607;29;20512;-71
2021/06/28 01:16:26;;;;;;;5.75;5.10;;;;;;;17.43;100.00;95676.63;1019630;29;20016;-71
2021/06/28 01:16:56;;;;;;;8.50;5.25;;;;;;;17.46;100.00;95689.28;1027389;28;20022;-71
2021/06/28 01:17:27;;;;;;;6.10;4.90;;;;;;;17.43;100.00;95680.03;1023669;29;20500;-71
2021/06/28 01:17:57;;;;;;;5.90;5.30;;;;;;;17.43;100.00;95684.56;1015683;29;20649;-71
2021/06/28 01:18:28;;;;;;;9.38;5.18;;;;;;;17.44;100.00;95686.94;1025747;28;20031;-71
2021/06/28 01:18:59;;;;;;;7.03;5.30;;;;;;;17.38;100.00;95687.38;1027612;28;20034;-71
2021/06/28 01:19:32;;;;;;;6.38;5.40;;;;;;;17.35;100.00;95685.34;1023779;29;20031;-71
2021/06/28 01:20:12;;;;;;;6.10;5.60;;;;;;;17.36;100.00;95687.66;1019409;29;20056;-71
2021/06/28 01:20:43;;;;;;;8.23;4.90;;;;;;;17.33;100.00;95695.47;1019505;29;20020;-71
2021/06/28 01:21:16;;;;;;;6.97;5.60;;;;;;;17.26;100.00;95685.28;1019428;29;20028;-71
2021/06/28 01:21:47;;;;;;;9.18;5.40;;;;;;;17.31;100.00;95697.66;1014540;29;20024;-71
2021/06/28 01:22:18;;;;;;;7.85;5.47;;;;;;;17.25;100.00;95691.69;1015626;29;20027;-70
2021/06/28 01:22:54;;;;;;;15.77;5.80;;;;;;;17.23;100.00;95695.72;1015798;29;20039;-71
2021/06/28 01:23:31;;;;;;;10.52;5.95;;;;;;;17.23;100.00;95698.38;1027248;28;20074;-72
2021/06/28 01:24:02;;;;;;;15.23;6.25;;;;;;;17.19;100.00;95701.66;1031918;28;20580;-71
2021/06/28 01:24:32;;;;;;;6.22;5.38;;;;;;;17.16;100.00;95701.47;1027459;28;20073;-71
2021/06/28 01:25:03;;;;;;;6.60;5.63;;;;;;;17.09;100.00;95707.22;1024896;28;20075;-71
2021/06/28 01:25:34;;;;;;;6.68;6.07;;;;;;;17.08;100.00;95705.66;1023592;28;20039;-71
2021/06/28 01:26:09;;;;;;;13.27;6.25;;;;;;;17.06;100.00;95713.13;1019726;29;20015;-71
2021/06/28 01:26:39;;;;;;;7.13;5.85;;;;;;;17.05;100.00;95711.56;1023572;28;20114;-72
2021/06/28 01:27:13;;;;;;;9.45;5.82;;;;;;;16.98;100.00;95705.13;1019051;29;20008;-71
2021/06/28 01:27:43;;;;;;;8.98;6.20;;;;;;;16.92;100.00;95697.31;1015968;29;20031;-72
2021/06/28 01:28:14;;;;;;;9.07;6.05;;;;;;;17.00;100.00;95714.38;1020281;29;20020;-69
2021/06/28 01:28:45;;;;;;;6.53;5.78;;;;;;;16.99;100.00;95720.72;1020473;28;20106;-72
2021/06/28 01:29:15;;;;;;;6.20;5.60;;;;;;;16.97;100.00;95722.91;1028407;28;20022;-71
2021/06/28 01:29:45;;;;;;;6.38;5.55;;;;;;;16.96;100.00;95722.09;1027657;28;20022;-71
2021/06/28 01:30:18;;;;;;;5.63;5.13;;;;;;;16.93;100.00;95725.41;1023273;28;20067;-70
2021/06/28 01:30:49;;;;;;;6.47;5.75;;;;;;;16.95;100.00;95727.72;1027404;28;20074;-71
2021/06/28 01:31:20;;;;;;;6.20;5.50;;;;;;;16.93;100.00;95737.84;1028591;28;20022;-71
2021/06/28 01:31:50;;;;;;;6.07;5.50;;;;;;;16.91;100.00;95746.09;1031196;28;20069;-71
2021/06/28 01:32:21;;;;;;;6.88;5.10;;;;;;;16.85;100.00;95743.88;1027752;28;20019;-71
2021/06/28 01:32:52;;;;;;;7.75;6.00;;;;;;;16.86;100.00;95745.44;1027462;28;20460;-71
2021/06/28 01:33:22;;;;;;;10.02;5.60;;;;;;;16.87;100.00;95745.16;1023500;29;20023;-71
2021/06/28 01:33:53;;;;;;;9.20;5.90;;;;;;;16.98;100.00;95758.16;1019299;28;20765;-71
2021/06/28 01:34:23;;;;;;;9.50;6.38;;;;;;;16.99;100.00;95765.78;1019721;29;20035;-71
2021/06/28 01:34:54;;;;;;;8.10;6.38;;;;;;;17.01;100.00;95757.56;1019594;29;20087;-71
2021/06/28 01:35:24;;;;;;;7.00;5.93;;;;;;;16.97;100.00;95752.06;1017704;29;20019;-70
2021/06/28 01:35:57;;;;;;;9.25;6.40;;;;;;;17.02;100.00;95748.50;1019729;29;20079;-72
2021/06/28 01:36:28;;;;;;;9.80;6.07;;;;;;;17.02;100.00;95751.94;1019846;29;20012;-70
2021/06/28 01:37:18;;;;;;;9.93;6.32;;;;;;;16.93;100.00;95732.53;1023864;28;20027;-71
2021/06/28 01:37:49;;;;;;;9.93;6.30;;;;;;;16.95;100.00;95733.81;1026701;28;20030;-71
2021/06/28 01:38:22;;;;;;;7.55;6.30;;;;;;;16.92;100.00;95726.47;1025251;28;20038;-71
2021/06/28 01:38:53;;;;;;;10.70;6.00;;;;;;;16.99;100.00;95733.22;1027143;28;20011;-71
2021/06/28 01:39:24;;;;;;;8.00;6.32;;;;;;;16.98;100.00;95735.06;1024066;28;20380;-72
2021/06/28 01:39:56;;;;;;;6.97;6.28;;;;;;;16.98;100.00;95740.38;1028162;28;20031;-71
2021/06/28 01:40:26;;;;;;;7.07;6.32;;;;;;;16.97;100.00;95741.47;1020021;29;20102;-71
2021/06/28 01:40:57;;;;;;;7.43;6.72;;;;;;;16.95;100.00;95736.47;1023679;28;20522;-71
2021/06/28 01:41:27;;;;;;;9.35;6.32;;;;;;;16.89;100.00;95732.38;1019596;29;20032;-71
2021/06/28 01:41:57;;;;;;;7.30;5.90;;;;;;;16.89;100.00;95728.94;1019719;28;20043;-71
2021/06/28 01:42:28;;;;;;;6.80;6.20;;;;;;;16.94;100.00;95745.50;1023434;28;20082;-71
2021/06/28 01:42:58;;;;;;;7.38;6.25;;;;;;;16.94;100.00;95748.16;1027077;28;20033;-70
2021/06/28 01:43:29;;;;;;;7.65;6.50;;;;;;;16.92;100.00;95749.53;1022562;28;20027;-71
2021/06/28 01:43:59;;;;;;;7.05;6.32;;;;;;;16.86;100.00;95737.50;1026038;28;20026;-70
2021/06/28 01:44:31;;;;;;;7.50;6.63;;;;;;;16.86;100.00;95746.22;1021051;29;20043;-71
2021/06/28 01:45:10;;;;;;;7.35;6.22;;;;;;;16.90;100.00;95755.16;1027083;28;20035;-72
2021/06/28 01:45:40;;;;;;;7.50;6.45;;;;;;;16.86;100.00;95751.53;1015332;29;20035;-71
2021/06/28 01:46:11;;;;;;;7.20;6.13;;;;;;;16.94;100.00;95763.28;1018327;29;20035;-71
2021/06/28 01:46:41;;;;;;;8.32;6.10;;;;;;;16.98;100.00;95764.25;1022962;29;20027;-71
2021/06/28 01:47:12;;;;;;;9.85;6.10;;;;;;;16.90;100.00;95759.66;1020098;28;20024;-70
2021/06/28 01:47:42;;;;;;;6.28;5.75;;;;;;;16.96;100.00;95763.75;1018944;29;20032;-71
2021/06/28 01:48:12;;;;;;;8.40;6.32;;;;;;;16.97;100.00;95767.97;1019157;29;20118;-72
2021/06/28 01:48:43;;;;;;;6.47;5.80;;;;;;;16.82;100.00;95731.22;1023267;29;20031;-71
2021/06/28 01:49:14;;;;;;;9.57;6.05;;;;;;;17.01;100.00;95762.84;1014925;29;20088;-71
2021/06/28 01:49:44;;;;;;;7.05;6.22;;;;;;;17.00;100.00;95761.28;1019245;29;20071;-72
2021/06/28 01:50:15;;;;;;;6.82;6.13;;;;;;;16.97;100.00;95757.38;1027187;28;20070;-72
2021/06/28 01:50:46;;;;;;;7.88;6.07;;;;;;;16.98;100.00;95758.94;1031200;28;20466;-71
2021/06/28 01:51:16;;;;;;;7.85;6.07;;;;;;;16.99;100.00;95755.19;1022928;28;20027;-72
2021/06/28 01:51:47;;;;;;;7.10;5.90;;;;;;;16.97;100.00;95752.06;1027021;28;20026;-72
2021/06/28 01:52:17;;;;;;;6.68;5.88;;;;;;;17.00;100.00;95745.38;1027187;28;20035;-72
2021/06/28 01:52:48;;;;;;;9.35;6.35;;;;;;;16.96;100.00;95743.31;1027157;28;20038;-71
2021/06/28 01:53:18;;;;;;;7.57;5.93;;;;;;;17.02;100.00;95749.28;1017617;29;20159;-71
2021/06/28 01:53:49;;;;;;;7.18;6.47;;;;;;;17.02;100.00;95743.97;1023294;28;20072;-72
2021/06/28 01:54:19;;;;;;;9.65;5.82;;;;;;;17.03;100.00;95739.47;1022840;28;20043;-72
2021/06/28 01:54:49;;;;;;;6.95;5.68;;;;;;;17.06;100.00;95741.50;1023106;28;20043;-72
2021/06/28 01:55:20;;;;;;;7.43;5.75;;;;;;;17.05;100.00;95735.44;1019495;29;20038;-71
2021/06/28 01:55:51;;;;;;;6.20;5.57;;;;;;;17.12;100.00;95742.94;1018994;29;20038;-72
2021/06/28 01:56:21;;;;;;;6.53;5.85;;;;;;;17.13;100.00;95737.34;1022786;28;20031;-72
2021/06/28 01:56:52;;;;;;;6.75;6.05;;;;;;;17.13;100.00;95744.50;1019481;29;20028;-70
2021/06/28 01:57:22;;;;;;;6.82;6.13;;;;;;;17.12;100.00;95741.06;1022616;29;20038;-71
2021/06/28 01:57:57;;;;;;;7.10;5.78;;;;;;;17.12;100.00;95741.06;1018935;29;20476;-71
2021/06/28 01:58:27;;;;;;;7.20;6.43;;;;;;;17.12;100.00;95746.38;1022979;29;20118;-71
2021/06/28 01:58:57;;;;;;;7.68;6.28;;;;;;;17.04;100.00;95730.44;1023190;29;20035;-69
2021/06/28 01:59:29;;;;;;;10.02;5.65;;;;;;;17.01;100.00;95726.53;1019571;29;20030;-71
2021/06/28 02:00:01;;;;;;;6.47;5.85;;;;;;;17.10;100.00;95743.28;1019499;29;20023;-71
2021/06/28 02:00:33;;;;;;;8.20;5.80;;;;;;;17.08;100.00;95742.78;1016335;29;20048;-72
2021/06/28 02:01:04;;;;;;;6.70;6.10;;;;;;;17.08;100.00;95739.34;1023039;29;20046;-71
2021/06/28 02:01:34;;;;;;;7.22;6.50;;;;;;;17.07;100.00;95741.22;1027870;28;20022;-71
2021/06/28 02:02:05;;;;;;;8.43;6.18;;;;;;;17.06;100.00;95739.63;1027660;28;20580;-71
2021/06/28 02:02:36;;;;;;;6.40;5.80;;;;;;;17.05;100.00;95738.06;1027212;28;20370;-71
2021/06/28 02:03:09;;;;;;;9.23;6.05;;;;;;;17.04;100.00;95741.81;1026439;28;20030;-71
2021/06/28 02:03:39;;;;;;;9.73;6.07;;;;;;;17.04;100.00;95731.22;1027279;28;20031;-71
2021/06/28 02:04:17;;;;;;;7.13;6.43;;;;;;;17.05;100.00;95734.66;1022826;29;20046;-72
2021/06/28 02:04:48;;;;;;;7.72;5.88;;;;;;;17.04;100.00;95731.22;1027002;28;20663;-71
2021/06/28 02:05:18;;;;;;;6.22;5.63;;;;;;;17.04;100.00;95725.91;1019088;29;20028;-71
2021/06/28 02:05:54;;;;;;;7.20;6.15;;;;;;;17.04;100.00;95723.25;1022958;29;20078;-71
2021/06/28 02:06:27;;;;;;;7.00;6.30;;;;;;;17.03;100.00;95724.34;1026477;28;20039;-72
2021/06/28 02:06:59;;;;;;;6.25;5.65;;;;;;;17.03;100.00;95719.03;1027111;28;20031;-71
2021/06/28 02:07:30;;;;;;;8.70;5.88;;;;;;;17.03;100.00;95724.34;1019277;29;20107;-71
2021/06/28 02:08:03;;;;;;;6.60;5.90;;;;;;;17.04;100.00;95725.13;1019339;29;20353;-71
2021/06/28 02:08:34;;;;;;;6.70;5.82;;;;;;;17.05;100.00;95722.16;1019828;29;20058;-71
2021/06/28 02:09:05;;;;;;;7.15;6.22;;;;;;;17.00;100.00;95717.00;1023965;28;20109;-71
2021/06/28 02:09:35;;;;;;;8.60;5.72;;;;;;;17.04;100.00;95720.63;1026991;28;20031;-71
2021/06/28 02:10:08;;;;;;;8.20;6.15;;;;;;;17.10;100.00;95719.41;1020096;29;20122;-72
2021/06/28 02:10:40;;;;;;;7.30;6.00;;;;;;;17.13;100.00;95718.00;1019128;29;20046;-71
2021/06/28 02:11:11;;;;;;;8.23;6.18;;;;;;;17.13;100.00;95721.41;1015715;29;20047;-71
2021/06/28 02:11:41;;;;;;;7.72;5.80;;;;;;;17.15;100.00;95721.91;1020313;28;20068;-71
2021/06/28 02:12:12;;;;;;;6.75;6.05;;;;;;;17.14;100.00;95715.06;1027488;28;20367;-71
2021/06/28 02:12:45;;;;;;;6.88;6.18;;;;;;;17.13;100.00;95710.03;1032559;28;20038;-71
2021/06/28 02:13:17;;;;;;;8.50;6.18;;;;;;;17.08;100.00;95705.66;1024532;28;20027;-71
2021/06/28 02:13:47;;;;;;;7.68;6.07;;;;;;;17.07;100.00;95705.94;1019173;29;20521;-70
2021/06/28 02:14:18;;;;;;;7.18;6.03;;;;;;;17.10;100.00;95719.41;1021952;28;20027;-71
2021/06/28 02:14:48;;;;;;;9.75;5.93;;;;;;;17.10;100.00;95718.59;1025325;28;20034;-70
2021/06/28 02:15:23;;;;;;;9.32;5.93;;;;;;;17.06;100.00;95726.38;1027131;28;20026;-71
2021/06/28 02:15:53;;;;;;;6.13;5.53;;;;;;;17.05;100.00;95722.16;1021292;29;20028;-71
2021/06/28 02:16:24;;;;;;;7.10;6.40;;;;;;;17.05;100.00;95726.69;1022743;28;20125;-71
2021/06/28 02:16:57;;;;;;;6.82;6.00;;;;;;;16.98;100.00;95719.16;1026987;28;20583;-71
2021/06/28 02:17:31;;;;;;;7.55;6.25;;;;;;;16.95;100.00;95719.78;1019056;29;20026;-72
2021/06/28 02:18:01;;;;;;;6.82;6.13;;;;;;;16.96;100.00;95719.47;1020836;28;20038;-71
2021/06/28 02:18:34;;;;;;;6.65;5.95;;;;;;;16.94;100.00;95720.88;1022820;29;20484;-71
2021/06/28 02:19:05;;;;;;;10.48;6.25;;;;;;;16.91;100.00;95727.56;1027170;28;20092;-71
2021/06/28 02:19:35;;;;;;;8.13;6.25;;;;;;;16.87;100.00;95723.16;1019145;29;20658;-71
2021/06/28 02:20:07;;;;;;;10.75;6.03;;;;;;;16.91;100.00;95732.06;1018615;29;20024;-71
2021/06/28 02:20:37;;;;;;;7.90;6.43;;;;;;;16.85;100.00;95722.69;1018878;29;20024;-71
2021/06/28 02:21:08;;;;;;;9.48;5.85;;;;;;;16.85;100.00;95734.06;1023348;29;20035;-71
2021/06/28 02:21:45;;;;;;;9.98;6.28;;;;;;;16.85;100.00;95735.94;1022845;28;20063;-71
2021/06/28 02:22:15;;;;;;;9.82;6.20;;;;;;;16.82;100.00;95731.22;1028161;28;20065;-71
2021/06/28 02:22:47;;;;;;;6.80;6.10;;;;;;;16.79;100.00;95737.13;1031980;28;20097;-71
2021/06/28 02:23:20;;;;;;;10.98;6.47;;;;;;;16.76;100.00;95743.03;1025879;28;20033;-69
2021/06/28 02:23:53;;;;;;;7.47;6.15;;;;;;;16.76;100.00;95735.09;1031137;28;20476;-71
2021/06/28 02:24:24;;;;;;;10.68;6.13;;;;;;;16.75;100.00;95738.81;1031168;28;20459;-71
2021/06/28 02:24:55;;;;;;;8.13;6.70;;;;;;;16.70;100.00;95731.75;1025394;28;20097;-71
2021/06/28 02:25:28;;;;;;;7.18;6.47;;;;;;;16.68;100.00;95728.63;1031653;28;20077;-71